sensor_id;sensor_type;location;lat;lon;timestamp;P1;durP1;ratioP1;P2;durP2;ratioP2
40815;SDS011;26535;48.788;9.214;2023-04-07T05:02:40;12.73;;;8.23;;
40815;SDS011;26535;48.788;9.214;2023-04-07T05:05:16;14.00;;;8.75;;
40815;SDS011;26535;48.788;9.214;2023-04-07T05:07:56;14.43;;;8.25;;
40815;SDS011;26535;48.788;9.214;2023-04-07T05:13:28;14.60;;;8.18;;
40815;SDS011;26535;48.788;9.214;2023-04-07T05:16:33;12.82;;;8.43;;
40815;SDS011;26535;48.788;9.214;2023-04-07T05:19:20;12.98;;;7.97;;
40815;SDS011;26535;48.788;9.214;2023-04-07T05:21:53;13.25;;;8.20;;
40815;SDS011;26535;48.788;9.214;2023-04-07T05:24:21;13.25;;;8.75;;
40815;SDS011;26535;48.788;9.214;2023-04-07T05:26:59;12.82;;;8.18;;
40815;SDS011;26535;48.788;9.214;2023-04-07T05:29:50;13.75;;;8.68;;
40815;SDS011;26535;48.788;9.214;2023-04-07T05:32:24;13.07;;;8.30;;
40815;SDS011;26535;48.788;9.214;2023-04-07T05:34:52;13.60;;;8.77;;
40815;SDS011;26535;48.788;9.214;2023-04-07T05:37:25;14.57;;;8.45;;
40815;SDS011;26535;48.788;9.214;2023-04-07T05:40:02;12.38;;;7.82;;
40815;SDS011;26535;48.788;9.214;2023-04-07T05:42:34;12.43;;;8.50;;
40815;SDS011;26535;48.788;9.214;2023-04-07T05:45:01;13.57;;;8.00;;
40815;SDS011;26535;48.788;9.214;2023-04-07T05:47:40;14.18;;;8.45;;
40815;SDS011;26535;48.788;9.214;2023-04-07T05:50:18;14.02;;;9.20;;
40815;SDS011;26535;48.788;9.214;2023-04-07T05:53:01;14.10;;;9.05;;
40815;SDS011;26535;48.788;9.214;2023-04-07T05:55:42;11.30;;;7.82;;
40815;SDS011;26535;48.788;9.214;2023-04-07T05:58:36;12.68;;;7.97;;
40815;SDS011;26535;48.788;9.214;2023-04-07T06:08:48;12.75;;;7.85;;
40815;SDS011;26535;48.788;9.214;2023-04-07T06:11:46;15.93;;;8.00;;
40815;SDS011;26535;48.788;9.214;2023-04-07T06:14:16;14.40;;;8.73;;
40815;SDS011;26535;48.788;9.214;2023-04-07T06:16:42;14.18;;;8.18;;
40815;SDS011;26535;48.788;9.214;2023-04-07T06:19:08;13.48;;;7.88;;
40815;SDS011;26535;48.788;9.214;2023-04-07T06:21:34;10.43;;;7.22;;
40815;SDS011;26535;48.788;9.214;2023-04-07T06:24:17;11.65;;;8.10;;
40815;SDS011;26535;48.788;9.214;2023-04-07T06:26:46;13.02;;;8.35;;
40815;SDS011;26535;48.788;9.214;2023-04-07T06:29:32;13.95;;;8.10;;
40815;SDS011;26535;48.788;9.214;2023-04-07T06:32:06;11.75;;;7.78;;
40815;SDS011;26535;48.788;9.214;2023-04-07T06:34:37;13.77;;;8.05;;
40815;SDS011;26535;48.788;9.214;2023-04-07T06:37:18;12.38;;;8.18;;
40815;SDS011;26535;48.788;9.214;2023-04-07T06:40:02;12.43;;;8.07;;
40815;SDS011;26535;48.788;9.214;2023-04-07T06:45:30;13.13;;;9.00;;
40815;SDS011;26535;48.788;9.214;2023-04-07T06:48:16;12.98;;;8.52;;
40815;SDS011;26535;48.788;9.214;2023-04-07T06:50:45;12.82;;;8.48;;
40815;SDS011;26535;48.788;9.214;2023-04-07T06:53:27;12.82;;;7.85;;
40815;SDS011;26535;48.788;9.214;2023-04-07T06:56:06;11.82;;;8.10;;
40815;SDS011;26535;48.788;9.214;2023-04-07T06:58:36;12.38;;;7.78;;
40815;SDS011;26535;48.788;9.214;2023-04-07T07:01:08;12.50;;;8.10;;
40815;SDS011;26535;48.788;9.214;2023-04-07T07:03:59;12.50;;;7.65;;
40815;SDS011;26535;48.788;9.214;2023-04-07T07:06:30;10.95;;;7.65;;
40815;SDS011;26535;48.788;9.214;2023-04-07T07:09:01;11.80;;;8.00;;
40815;SDS011;26535;48.788;9.214;2023-04-07T07:11:29;12.32;;;8.13;;
40815;SDS011;26535;48.788;9.214;2023-04-07T07:14:16;12.52;;;7.95;;
40815;SDS011;26535;48.788;9.214;2023-04-07T07:16:44;11.13;;;7.65;;
40815;SDS011;26535;48.788;9.214;2023-04-07T07:19:37;11.30;;;8.23;;
40815;SDS011;26535;48.788;9.214;2023-04-07T07:22:06;11.02;;;7.50;;
40815;SDS011;26535;48.788;9.214;2023-04-07T07:24:44;11.07;;;7.63;;
40815;SDS011;26535;48.788;9.214;2023-04-07T07:27:15;11.30;;;7.60;;
40815;SDS011;26535;48.788;9.214;2023-04-07T07:30:04;11.73;;;7.13;;
40815;SDS011;26535;48.788;9.214;2023-04-07T07:39:23;12.55;;;7.70;;
40815;SDS011;26535;48.788;9.214;2023-04-07T07:42:10;12.55;;;7.38;;
40815;SDS011;26535;48.788;9.214;2023-04-07T07:45:02;11.60;;;7.90;;
40815;SDS011;26535;48.788;9.214;2023-04-07T07:47:28;12.50;;;8.65;;
40815;SDS011;26535;48.788;9.214;2023-04-07T07:50:03;11.63;;;7.35;;
40815;SDS011;26535;48.788;9.214;2023-04-07T07:52:33;11.90;;;8.07;;
40815;SDS011;26535;48.788;9.214;2023-04-07T07:55:06;12.73;;;8.27;;
40815;SDS011;26535;48.788;9.214;2023-04-07T07:57:41;12.68;;;7.95;;
40815;SDS011;26535;48.788;9.214;2023-04-07T08:00:19;12.63;;;7.97;;
40815;SDS011;26535;48.788;9.214;2023-04-07T08:03:03;14.07;;;8.45;;
40815;SDS011;26535;48.788;9.214;2023-04-07T08:05:32;17.13;;;8.38;;
40815;SDS011;26535;48.788;9.214;2023-04-07T08:08:13;12.05;;;7.28;;
40815;SDS011;26535;48.788;9.214;2023-04-07T08:10:41;11.63;;;7.60;;
40815;SDS011;26535;48.788;9.214;2023-04-07T08:13:22;12.02;;;7.60;;
40815;SDS011;26535;48.788;9.214;2023-04-07T08:15:53;11.20;;;7.38;;
40815;SDS011;26535;48.788;9.214;2023-04-07T08:18:28;12.68;;;8.10;;
40815;SDS011;26535;48.788;9.214;2023-04-07T08:24:11;13.38;;;7.40;;
40815;SDS011;26535;48.788;9.214;2023-04-07T08:26:38;11.27;;;7.10;;
40815;SDS011;26535;48.788;9.214;2023-04-07T08:29:19;10.40;;;6.55;;
40815;SDS011;26535;48.788;9.214;2023-04-07T08:31:51;9.40;;;5.70;;
40815;SDS011;26535;48.788;9.214;2023-04-07T08:34:54;7.20;;;5.47;;
40815;SDS011;26535;48.788;9.214;2023-04-07T08:37:29;6.85;;;4.97;;
40815;SDS011;26535;48.788;9.214;2023-04-07T08:42:53;8.77;;;3.97;;
40815;SDS011;26535;48.788;9.214;2023-04-07T08:45:51;6.07;;;3.78;;
40815;SDS011;26535;48.788;9.214;2023-04-07T08:48:20;5.97;;;3.95;;
40815;SDS011;26535;48.788;9.214;2023-04-07T08:51:07;6.10;;;4.05;;
40815;SDS011;26535;48.788;9.214;2023-04-07T08:54:14;6.72;;;4.10;;
40815;SDS011;26535;48.788;9.214;2023-04-07T08:57:10;6.65;;;4.15;;
40815;SDS011;26535;48.788;9.214;2023-04-07T08:59:43;7.82;;;4.90;;
40815;SDS011;26535;48.788;9.214;2023-04-07T09:02:13;8.52;;;5.05;;
40815;SDS011;26535;48.788;9.214;2023-04-07T09:04:52;6.65;;;4.68;;
40815;SDS011;26535;48.788;9.214;2023-04-07T09:07:18;8.88;;;4.78;;
40815;SDS011;26535;48.788;9.214;2023-04-07T09:13:11;7.15;;;4.72;;
40815;SDS011;26535;48.788;9.214;2023-04-07T09:15:38;9.35;;;4.75;;
40815;SDS011;26535;48.788;9.214;2023-04-07T09:18:07;7.05;;;4.63;;
40815;SDS011;26535;48.788;9.214;2023-04-07T09:23:35;7.97;;;5.00;;
40815;SDS011;26535;48.788;9.214;2023-04-07T09:29:02;8.02;;;4.85;;
40815;SDS011;26535;48.788;9.214;2023-04-07T09:34:30;7.70;;;4.90;;
40815;SDS011;26535;48.788;9.214;2023-04-07T09:37:01;6.10;;;4.70;;
40815;SDS011;26535;48.788;9.214;2023-04-07T09:39:31;7.68;;;4.30;;
40815;SDS011;26535;48.788;9.214;2023-04-07T09:41:57;7.90;;;4.45;;
40815;SDS011;26535;48.788;9.214;2023-04-07T09:44:29;9.20;;;4.72;;
40815;SDS011;26535;48.788;9.214;2023-04-07T09:47:14;7.43;;;4.18;;
40815;SDS011;26535;48.788;9.214;2023-04-07T09:53:09;6.55;;;4.15;;
40815;SDS011;26535;48.788;9.214;2023-04-07T09:55:37;7.57;;;4.75;;
40815;SDS011;26535;48.788;9.214;2023-04-07T09:58:09;7.07;;;4.55;;
40815;SDS011;26535;48.788;9.214;2023-04-07T10:00:46;7.20;;;4.53;;
40815;SDS011;26535;48.788;9.214;2023-04-07T10:03:14;7.70;;;4.40;;
40815;SDS011;26535;48.788;9.214;2023-04-07T10:05:44;7.63;;;4.47;;
40815;SDS011;26535;48.788;9.214;2023-04-07T10:08:13;8.05;;;4.28;;
40815;SDS011;26535;48.788;9.214;2023-04-07T10:10:45;6.57;;;4.47;;
40815;SDS011;26535;48.788;9.214;2023-04-07T10:13:35;6.57;;;4.15;;
40815;SDS011;26535;48.788;9.214;2023-04-07T10:18:38;6.70;;;4.15;;
40815;SDS011;26535;48.788;9.214;2023-04-07T10:21:06;6.35;;;4.28;;
40815;SDS011;26535;48.788;9.214;2023-04-07T10:26:54;8.30;;;4.35;;
40815;SDS011;26535;48.788;9.214;2023-04-07T10:29:31;8.07;;;4.00;;
40815;SDS011;26535;48.788;9.214;2023-04-07T10:32:45;8.80;;;4.07;;
40815;SDS011;26535;48.788;9.214;2023-04-07T10:35:13;5.57;;;3.50;;
40815;SDS011;26535;48.788;9.214;2023-04-07T10:37:38;5.57;;;3.63;;
40815;SDS011;26535;48.788;9.214;2023-04-07T10:43:02;7.78;;;4.40;;
40815;SDS011;26535;48.788;9.214;2023-04-07T10:48:40;6.43;;;3.42;;
40815;SDS011;26535;48.788;9.214;2023-04-07T10:51:15;6.10;;;3.88;;
40815;SDS011;26535;48.788;9.214;2023-04-07T10:57:11;8.70;;;3.60;;
40815;SDS011;26535;48.788;9.214;2023-04-07T10:59:41;6.72;;;4.05;;
40815;SDS011;26535;48.788;9.214;2023-04-07T11:02:31;6.55;;;4.07;;
40815;SDS011;26535;48.788;9.214;2023-04-07T11:05:07;7.03;;;3.70;;
40815;SDS011;26535;48.788;9.214;2023-04-07T11:07:59;10.02;;;4.00;;
40815;SDS011;26535;48.788;9.214;2023-04-07T11:10:46;6.28;;;3.75;;
40815;SDS011;26535;48.788;9.214;2023-04-07T11:14:06;6.28;;;3.63;;
40815;SDS011;26535;48.788;9.214;2023-04-07T11:16:37;6.70;;;3.58;;
40815;SDS011;26535;48.788;9.214;2023-04-07T11:19:11;6.85;;;3.40;;
40815;SDS011;26535;48.788;9.214;2023-04-07T11:21:48;6.25;;;3.50;;
40815;SDS011;26535;48.788;9.214;2023-04-07T11:24:40;5.63;;;2.67;;
40815;SDS011;26535;48.788;9.214;2023-04-07T11:27:13;6.68;;;2.90;;
40815;SDS011;26535;48.788;9.214;2023-04-07T11:29:43;5.22;;;3.50;;
40815;SDS011;26535;48.788;9.214;2023-04-07T11:32:34;4.05;;;3.08;;
40815;SDS011;26535;48.788;9.214;2023-04-07T11:35:00;7.25;;;3.90;;
40815;SDS011;26535;48.788;9.214;2023-04-07T11:37:58;6.82;;;3.88;;
40815;SDS011;26535;48.788;9.214;2023-04-07T11:40:35;8.32;;;3.60;;
40815;SDS011;26535;48.788;9.214;2023-04-07T11:43:17;6.15;;;3.53;;
40815;SDS011;26535;48.788;9.214;2023-04-07T11:48:35;7.07;;;3.53;;
40815;SDS011;26535;48.788;9.214;2023-04-07T11:51:04;6.25;;;3.65;;
40815;SDS011;26535;48.788;9.214;2023-04-07T11:53:34;8.23;;;3.70;;
40815;SDS011;26535;48.788;9.214;2023-04-07T11:56:07;8.63;;;4.05;;
40815;SDS011;26535;48.788;9.214;2023-04-07T11:58:52;6.72;;;3.60;;
40815;SDS011;26535;48.788;9.214;2023-04-07T12:01:18;5.72;;;3.42;;
40815;SDS011;26535;48.788;9.214;2023-04-07T12:03:58;5.50;;;3.70;;
40815;SDS011;26535;48.788;9.214;2023-04-07T12:06:32;8.55;;;4.13;;
40815;SDS011;26535;48.788;9.214;2023-04-07T12:11:59;6.07;;;3.83;;
40815;SDS011;26535;48.788;9.214;2023-04-07T12:14:26;7.60;;;4.40;;
40815;SDS011;26535;48.788;9.214;2023-04-07T12:17:22;9.07;;;5.18;;
40815;SDS011;26535;48.788;9.214;2023-04-07T12:19:49;7.95;;;5.07;;
40815;SDS011;26535;48.788;9.214;2023-04-07T12:22:15;8.30;;;5.57;;
40815;SDS011;26535;48.788;9.214;2023-04-07T12:24:44;9.82;;;5.50;;
40815;SDS011;26535;48.788;9.214;2023-04-07T12:27:10;9.05;;;4.88;;
40815;SDS011;26535;48.788;9.214;2023-04-07T12:29:36;8.65;;;5.40;;
40815;SDS011;26535;48.788;9.214;2023-04-07T12:32:03;7.63;;;4.88;;
40815;SDS011;26535;48.788;9.214;2023-04-07T12:34:35;6.72;;;3.95;;
40815;SDS011;26535;48.788;9.214;2023-04-07T12:37:02;3.83;;;2.40;;
40815;SDS011;26535;48.788;9.214;2023-04-07T12:39:28;5.70;;;2.50;;
40815;SDS011;26535;48.788;9.214;2023-04-07T12:41:56;5.25;;;1.95;;
40815;SDS011;26535;48.788;9.214;2023-04-07T12:44:22;5.97;;;2.67;;
40815;SDS011;26535;48.788;9.214;2023-04-07T12:46:50;5.25;;;2.22;;
40815;SDS011;26535;48.788;9.214;2023-04-07T12:49:18;3.83;;;2.08;;
40815;SDS011;26535;48.788;9.214;2023-04-07T12:51:44;4.30;;;2.33;;
40815;SDS011;26535;48.788;9.214;2023-04-07T12:54:15;5.80;;;2.60;;
40815;SDS011;26535;48.788;9.214;2023-04-07T12:56:47;3.70;;;1.77;;
40815;SDS011;26535;48.788;9.214;2023-04-07T12:59:13;5.10;;;2.10;;
40815;SDS011;26535;48.788;9.214;2023-04-07T13:01:41;3.05;;;1.90;;
40815;SDS011;26535;48.788;9.214;2023-04-07T13:04:08;3.83;;;1.90;;
40815;SDS011;26535;48.788;9.214;2023-04-07T13:06:37;3.38;;;1.98;;
40815;SDS011;26535;48.788;9.214;2023-04-07T13:15:04;2.83;;;1.10;;
40815;SDS011;26535;48.788;9.214;2023-04-07T13:17:34;3.22;;;1.27;;
40815;SDS011;26535;48.788;9.214;2023-04-07T13:20:01;3.47;;;1.30;;
40815;SDS011;26535;48.788;9.214;2023-04-07T13:22:28;2.55;;;1.15;;
40815;SDS011;26535;48.788;9.214;2023-04-07T13:25:17;4.55;;;1.30;;
40815;SDS011;26535;48.788;9.214;2023-04-07T13:30:08;4.35;;;1.50;;
40815;SDS011;26535;48.788;9.214;2023-04-07T13:32:37;4.35;;;1.85;;
40815;SDS011;26535;48.788;9.214;2023-04-07T13:37:34;3.20;;;1.60;;
40815;SDS011;26535;48.788;9.214;2023-04-07T13:40:07;5.40;;;2.28;;
40815;SDS011;26535;48.788;9.214;2023-04-07T13:42:39;3.90;;;1.88;;
40815;SDS011;26535;48.788;9.214;2023-04-07T13:45:07;3.95;;;1.80;;
40815;SDS011;26535;48.788;9.214;2023-04-07T13:47:33;4.22;;;1.90;;
40815;SDS011;26535;48.788;9.214;2023-04-07T13:50:31;4.27;;;1.80;;
40815;SDS011;26535;48.788;9.214;2023-04-07T13:53:10;5.47;;;1.92;;
40815;SDS011;26535;48.788;9.214;2023-04-07T13:55:47;5.35;;;2.20;;
40815;SDS011;26535;48.788;9.214;2023-04-07T13:58:41;4.07;;;1.92;;
40815;SDS011;26535;48.788;9.214;2023-04-07T14:01:07;4.20;;;2.13;;
40815;SDS011;26535;48.788;9.214;2023-04-07T14:03:45;3.88;;;2.47;;
40815;SDS011;26535;48.788;9.214;2023-04-07T14:06:15;4.63;;;2.30;;
40815;SDS011;26535;48.788;9.214;2023-04-07T14:08:50;4.57;;;2.80;;
40815;SDS011;26535;48.788;9.214;2023-04-07T14:11:22;5.57;;;2.35;;
40815;SDS011;26535;48.788;9.214;2023-04-07T14:13:49;4.55;;;2.35;;
40815;SDS011;26535;48.788;9.214;2023-04-07T14:16:17;4.50;;;2.17;;
40815;SDS011;26535;48.788;9.214;2023-04-07T14:18:43;3.35;;;2.08;;
40815;SDS011;26535;48.788;9.214;2023-04-07T14:21:09;5.03;;;2.42;;
40815;SDS011;26535;48.788;9.214;2023-04-07T14:23:35;6.22;;;2.47;;
40815;SDS011;26535;48.788;9.214;2023-04-07T14:26:16;4.82;;;2.30;;
40815;SDS011;26535;48.788;9.214;2023-04-07T14:28:48;5.28;;;2.72;;
40815;SDS011;26535;48.788;9.214;2023-04-07T14:31:25;7.75;;;5.13;;
40815;SDS011;26535;48.788;9.214;2023-04-07T14:33:50;4.32;;;2.40;;
40815;SDS011;26535;48.788;9.214;2023-04-07T14:36:17;5.05;;;2.50;;
40815;SDS011;26535;48.788;9.214;2023-04-07T14:38:43;4.18;;;2.17;;
40815;SDS011;26535;48.788;9.214;2023-04-07T14:41:09;5.03;;;2.58;;
40815;SDS011;26535;48.788;9.214;2023-04-07T14:43:35;5.40;;;2.65;;
40815;SDS011;26535;48.788;9.214;2023-04-07T14:46:03;5.78;;;3.33;;
40815;SDS011;26535;48.788;9.214;2023-04-07T14:48:29;5.22;;;2.60;;
40815;SDS011;26535;48.788;9.214;2023-04-07T14:50:55;5.15;;;2.30;;
40815;SDS011;26535;48.788;9.214;2023-04-07T14:53:36;5.75;;;2.65;;
40815;SDS011;26535;48.788;9.214;2023-04-07T14:56:05;4.40;;;2.70;;
40815;SDS011;26535;48.788;9.214;2023-04-07T14:58:31;4.50;;;2.42;;
40815;SDS011;26535;48.788;9.214;2023-04-07T15:00:57;5.05;;;2.53;;
40815;SDS011;26535;48.788;9.214;2023-04-07T15:03:23;5.25;;;2.88;;
40815;SDS011;26535;48.788;9.214;2023-04-07T15:05:51;6.82;;;2.58;;
40815;SDS011;26535;48.788;9.214;2023-04-07T15:08:26;5.10;;;2.65;;
40815;SDS011;26535;48.788;9.214;2023-04-07T15:10:52;7.60;;;2.40;;
40815;SDS011;26535;48.788;9.214;2023-04-07T15:13:23;5.18;;;2.17;;
40815;SDS011;26535;48.788;9.214;2023-04-07T15:15:52;6.20;;;2.40;;
40815;SDS011;26535;48.788;9.214;2023-04-07T15:19:01;5.38;;;2.30;;
40815;SDS011;26535;48.788;9.214;2023-04-07T15:21:28;6.07;;;2.42;;
40815;SDS011;26535;48.788;9.214;2023-04-07T15:23:56;3.95;;;1.77;;
40815;SDS011;26535;48.788;9.214;2023-04-07T15:26:22;4.10;;;2.00;;
40815;SDS011;26535;48.788;9.214;2023-04-07T15:28:47;3.97;;;2.30;;
40815;SDS011;26535;48.788;9.214;2023-04-07T15:31:13;5.50;;;2.60;;
40815;SDS011;26535;48.788;9.214;2023-04-07T15:33:39;8.05;;;2.58;;
40815;SDS011;26535;48.788;9.214;2023-04-07T15:36:05;6.70;;;2.80;;
40815;SDS011;26535;48.788;9.214;2023-04-07T15:38:32;5.68;;;2.90;;
40815;SDS011;26535;48.788;9.214;2023-04-07T15:40:59;7.22;;;2.85;;
40815;SDS011;26535;48.788;9.214;2023-04-07T15:43:37;4.32;;;2.67;;
40815;SDS011;26535;48.788;9.214;2023-04-07T15:46:08;4.13;;;2.58;;
40815;SDS011;26535;48.788;9.214;2023-04-07T15:48:35;6.38;;;2.83;;
40815;SDS011;26535;48.788;9.214;2023-04-07T15:51:04;5.28;;;2.88;;
40815;SDS011;26535;48.788;9.214;2023-04-07T15:53:29;5.82;;;2.95;;
40815;SDS011;26535;48.788;9.214;2023-04-07T15:56:07;5.38;;;2.60;;
40815;SDS011;26535;48.788;9.214;2023-04-07T15:59:32;5.85;;;2.45;;
40815;SDS011;26535;48.788;9.214;2023-04-07T16:02:31;4.53;;;2.20;;
40815;SDS011;26535;48.788;9.214;2023-04-07T16:05:06;5.05;;;2.65;;
40815;SDS011;26535;48.788;9.214;2023-04-07T16:07:35;5.45;;;2.67;;
40815;SDS011;26535;48.788;9.214;2023-04-07T16:10:24;4.97;;;1.98;;
40815;SDS011;26535;48.788;9.214;2023-04-07T16:12:52;5.00;;;2.28;;
40815;SDS011;26535;48.788;9.214;2023-04-07T16:15:18;3.90;;;1.80;;
40815;SDS011;26535;48.788;9.214;2023-04-07T16:17:45;4.55;;;2.10;;
40815;SDS011;26535;48.788;9.214;2023-04-07T16:20:18;6.32;;;2.08;;
40815;SDS011;26535;48.788;9.214;2023-04-07T16:22:45;5.18;;;2.25;;
40815;SDS011;26535;48.788;9.214;2023-04-07T16:27:56;3.10;;;1.42;;
40815;SDS011;26535;48.788;9.214;2023-04-07T16:30:31;3.85;;;1.75;;
40815;SDS011;26535;48.788;9.214;2023-04-07T16:33:35;3.47;;;1.60;;
40815;SDS011;26535;48.788;9.214;2023-04-07T16:36:06;3.90;;;1.77;;
40815;SDS011;26535;48.788;9.214;2023-04-07T16:38:35;3.38;;;1.50;;
40815;SDS011;26535;48.788;9.214;2023-04-07T16:41:05;3.85;;;1.80;;
40815;SDS011;26535;48.788;9.214;2023-04-07T16:43:34;4.93;;;1.60;;
40815;SDS011;26535;48.788;9.214;2023-04-07T16:46:07;4.22;;;1.55;;
40815;SDS011;26535;48.788;9.214;2023-04-07T16:48:36;3.05;;;1.45;;
40815;SDS011;26535;48.788;9.214;2023-04-07T16:51:02;3.83;;;1.88;;
40815;SDS011;26535;48.788;9.214;2023-04-07T16:53:32;5.18;;;2.45;;
40815;SDS011;26535;48.788;9.214;2023-04-07T16:56:19;6.85;;;2.60;;
40815;SDS011;26535;48.788;9.214;2023-04-07T16:58:54;6.80;;;3.00;;
40815;SDS011;26535;48.788;9.214;2023-04-07T17:01:30;5.50;;;2.80;;
40815;SDS011;26535;48.788;9.214;2023-04-07T17:06:46;7.07;;;2.92;;
40815;SDS011;26535;48.788;9.214;2023-04-07T17:09:12;6.80;;;3.17;;
40815;SDS011;26535;48.788;9.214;2023-04-07T17:11:44;6.03;;;3.00;;
40815;SDS011;26535;48.788;9.214;2023-04-07T17:14:16;5.30;;;2.53;;
40815;SDS011;26535;48.788;9.214;2023-04-07T17:16:47;6.18;;;3.22;;
40815;SDS011;26535;48.788;9.214;2023-04-07T17:19:16;8.52;;;3.58;;
40815;SDS011;26535;48.788;9.214;2023-04-07T17:22:02;7.20;;;3.38;;
40815;SDS011;26535;48.788;9.214;2023-04-07T17:24:28;6.43;;;3.20;;
40815;SDS011;26535;48.788;9.214;2023-04-07T17:26:54;6.60;;;3.20;;
40815;SDS011;26535;48.788;9.214;2023-04-07T17:29:19;7.30;;;3.72;;
40815;SDS011;26535;48.788;9.214;2023-04-07T17:31:50;5.35;;;3.47;;
40815;SDS011;26535;48.788;9.214;2023-04-07T17:34:15;6.68;;;3.42;;
40815;SDS011;26535;48.788;9.214;2023-04-07T17:36:41;4.53;;;3.20;;
40815;SDS011;26535;48.788;9.214;2023-04-07T17:39:07;5.93;;;3.58;;
40815;SDS011;26535;48.788;9.214;2023-04-07T17:41:53;6.93;;;3.70;;
40815;SDS011;26535;48.788;9.214;2023-04-07T17:44:27;7.95;;;3.83;;
40815;SDS011;26535;48.788;9.214;2023-04-07T17:47:02;5.88;;;3.17;;
40815;SDS011;26535;48.788;9.214;2023-04-07T17:49:28;7.22;;;3.63;;
40815;SDS011;26535;48.788;9.214;2023-04-07T17:51:54;4.55;;;2.80;;
40815;SDS011;26535;48.788;9.214;2023-04-07T17:54:20;3.80;;;2.67;;
40815;SDS011;26535;48.788;9.214;2023-04-07T17:56:46;4.40;;;2.40;;
40815;SDS011;26535;48.788;9.214;2023-04-07T17:59:12;5.07;;;2.95;;
40815;SDS011;26535;48.788;9.214;2023-04-07T18:01:39;4.18;;;2.78;;
40815;SDS011;26535;48.788;9.214;2023-04-07T18:04:13;4.57;;;3.08;;
40815;SDS011;26535;48.788;9.214;2023-04-07T18:06:39;4.95;;;3.03;;
40815;SDS011;26535;48.788;9.214;2023-04-07T18:09:05;4.38;;;2.78;;
40815;SDS011;26535;48.788;9.214;2023-04-07T18:11:31;4.75;;;3.03;;
40815;SDS011;26535;48.788;9.214;2023-04-07T18:13:57;3.78;;;2.50;;
40815;SDS011;26535;48.788;9.214;2023-04-07T18:16:26;4.90;;;2.92;;
40815;SDS011;26535;48.788;9.214;2023-04-07T18:19:04;5.85;;;2.58;;
40815;SDS011;26535;48.788;9.214;2023-04-07T18:21:29;4.45;;;2.35;;
40815;SDS011;26535;48.788;9.214;2023-04-07T18:24:02;3.58;;;2.15;;
40815;SDS011;26535;48.788;9.214;2023-04-07T18:26:29;4.13;;;2.30;;
40815;SDS011;26535;48.788;9.214;2023-04-07T18:28:56;3.88;;;2.35;;
40815;SDS011;26535;48.788;9.214;2023-04-07T18:31:38;4.68;;;2.50;;
40815;SDS011;26535;48.788;9.214;2023-04-07T18:34:06;4.45;;;2.40;;
40815;SDS011;26535;48.788;9.214;2023-04-07T18:36:35;3.22;;;2.05;;
40815;SDS011;26535;48.788;9.214;2023-04-07T18:39:21;3.10;;;1.90;;
40815;SDS011;26535;48.788;9.214;2023-04-07T18:41:47;4.63;;;1.88;;
40815;SDS011;26535;48.788;9.214;2023-04-07T18:44:13;2.80;;;1.80;;
40815;SDS011;26535;48.788;9.214;2023-04-07T18:46:54;3.55;;;1.80;;
40815;SDS011;26535;48.788;9.214;2023-04-07T18:49:44;3.53;;;1.85;;
40815;SDS011;26535;48.788;9.214;2023-04-07T18:52:17;3.53;;;1.88;;
40815;SDS011;26535;48.788;9.214;2023-04-07T18:54:58;3.95;;;1.83;;
40815;SDS011;26535;48.788;9.214;2023-04-07T18:57:24;3.47;;;1.92;;
40815;SDS011;26535;48.788;9.214;2023-04-07T18:59:49;2.90;;;1.50;;
40815;SDS011;26535;48.788;9.214;2023-04-07T19:02:22;3.28;;;1.60;;
40815;SDS011;26535;48.788;9.214;2023-04-07T19:04:48;3.22;;;2.00;;
40815;SDS011;26535;48.788;9.214;2023-04-07T19:07:18;3.83;;;1.55;;
40815;SDS011;26535;48.788;9.214;2023-04-07T19:09:47;3.10;;;2.00;;
40815;SDS011;26535;48.788;9.214;2023-04-07T19:12:17;3.75;;;2.05;;
40815;SDS011;26535;48.788;9.214;2023-04-07T19:14:42;4.45;;;2.08;;
40815;SDS011;26535;48.788;9.214;2023-04-07T19:17:08;3.90;;;2.42;;
40815;SDS011;26535;48.788;9.214;2023-04-07T19:19:35;3.65;;;1.90;;
40815;SDS011;26535;48.788;9.214;2023-04-07T19:22:01;4.47;;;2.53;;
40815;SDS011;26535;48.788;9.214;2023-04-07T19:24:27;3.55;;;2.20;;
40815;SDS011;26535;48.788;9.214;2023-04-07T19:26:53;3.88;;;2.30;;
40815;SDS011;26535;48.788;9.214;2023-04-07T19:29:19;5.30;;;2.90;;
40815;SDS011;26535;48.788;9.214;2023-04-07T19:31:44;4.68;;;2.78;;
40815;SDS011;26535;48.788;9.214;2023-04-07T19:34:11;4.53;;;2.53;;
40815;SDS011;26535;48.788;9.214;2023-04-07T19:36:40;4.15;;;2.65;;
40815;SDS011;26535;48.788;9.214;2023-04-07T19:39:12;5.50;;;3.10;;
40815;SDS011;26535;48.788;9.214;2023-04-07T19:41:37;4.68;;;2.80;;
40815;SDS011;26535;48.788;9.214;2023-04-07T19:44:06;5.78;;;3.33;;
40815;SDS011;26535;48.788;9.214;2023-04-07T19:46:32;4.15;;;2.83;;
40815;SDS011;26535;48.788;9.214;2023-04-07T19:49:00;5.25;;;3.38;;
40815;SDS011;26535;48.788;9.214;2023-04-07T19:51:31;4.93;;;3.15;;
40815;SDS011;26535;48.788;9.214;2023-04-07T19:53:57;5.82;;;2.75;;
40815;SDS011;26535;48.788;9.214;2023-04-07T19:56:23;4.97;;;2.75;;
40815;SDS011;26535;48.788;9.214;2023-04-07T19:58:49;4.43;;;2.67;;
40815;SDS011;26535;48.788;9.214;2023-04-07T20:01:18;5.72;;;3.13;;
40815;SDS011;26535;48.788;9.214;2023-04-07T20:03:43;5.25;;;3.33;;
40815;SDS011;26535;48.788;9.214;2023-04-07T20:06:12;4.10;;;2.80;;
40815;SDS011;26535;48.788;9.214;2023-04-07T20:08:39;5.18;;;3.17;;
40815;SDS011;26535;48.788;9.214;2023-04-07T20:11:06;5.35;;;3.38;;
40815;SDS011;26535;48.788;9.214;2023-04-07T20:13:38;5.88;;;3.67;;
40815;SDS011;26535;48.788;9.214;2023-04-07T20:16:05;5.78;;;3.38;;
40815;SDS011;26535;48.788;9.214;2023-04-07T20:18:41;5.72;;;3.85;;
40815;SDS011;26535;48.788;9.214;2023-04-07T20:21:25;6.10;;;3.40;;
40815;SDS011;26535;48.788;9.214;2023-04-07T20:24:19;5.28;;;3.28;;
40815;SDS011;26535;48.788;9.214;2023-04-07T20:26:52;6.45;;;3.50;;
40815;SDS011;26535;48.788;9.214;2023-04-07T20:29:18;6.40;;;3.78;;
40815;SDS011;26535;48.788;9.214;2023-04-07T20:31:59;6.63;;;4.10;;
40815;SDS011;26535;48.788;9.214;2023-04-07T20:34:24;7.00;;;4.30;;
40815;SDS011;26535;48.788;9.214;2023-04-07T20:36:57;5.70;;;3.85;;
40815;SDS011;26535;48.788;9.214;2023-04-07T20:39:22;6.75;;;4.57;;
40815;SDS011;26535;48.788;9.214;2023-04-07T20:44:28;6.32;;;3.83;;
40815;SDS011;26535;48.788;9.214;2023-04-07T20:46:55;6.03;;;4.22;;
40815;SDS011;26535;48.788;9.214;2023-04-07T20:49:24;6.38;;;4.30;;
40815;SDS011;26535;48.788;9.214;2023-04-07T20:51:50;6.05;;;4.32;;
40815;SDS011;26535;48.788;9.214;2023-04-07T20:54:15;6.78;;;4.57;;
40815;SDS011;26535;48.788;9.214;2023-04-07T20:57:07;7.10;;;4.07;;
40815;SDS011;26535;48.788;9.214;2023-04-07T20:59:36;7.63;;;4.40;;
40815;SDS011;26535;48.788;9.214;2023-04-07T21:02:08;6.15;;;4.20;;
40815;SDS011;26535;48.788;9.214;2023-04-07T21:07:31;6.57;;;4.53;;
40815;SDS011;26535;48.788;9.214;2023-04-07T21:09:57;6.78;;;4.30;;
40815;SDS011;26535;48.788;9.214;2023-04-07T21:12:23;7.70;;;4.95;;
40815;SDS011;26535;48.788;9.214;2023-04-07T21:14:52;7.88;;;4.97;;
40815;SDS011;26535;48.788;9.214;2023-04-07T21:17:18;8.07;;;5.22;;
40815;SDS011;26535;48.788;9.214;2023-04-07T21:19:44;6.35;;;4.47;;
40815;SDS011;26535;48.788;9.214;2023-04-07T21:22:10;6.72;;;4.38;;
40815;SDS011;26535;48.788;9.214;2023-04-07T21:24:39;7.53;;;5.18;;
40815;SDS011;26535;48.788;9.214;2023-04-07T21:27:07;6.40;;;4.70;;
40815;SDS011;26535;48.788;9.214;2023-04-07T21:29:33;6.18;;;4.40;;
40815;SDS011;26535;48.788;9.214;2023-04-07T21:31:59;6.38;;;4.05;;
40815;SDS011;26535;48.788;9.214;2023-04-07T21:34:25;6.72;;;4.00;;
40815;SDS011;26535;48.788;9.214;2023-04-07T21:36:51;5.95;;;4.13;;
40815;SDS011;26535;48.788;9.214;2023-04-07T21:39:20;6.78;;;4.60;;
40815;SDS011;26535;48.788;9.214;2023-04-07T21:41:46;7.53;;;4.93;;
40815;SDS011;26535;48.788;9.214;2023-04-07T21:44:11;6.65;;;4.78;;
40815;SDS011;26535;48.788;9.214;2023-04-07T21:46:38;7.13;;;5.00;;